sensor_id;sensor_type;location;lat;lon;timestamp;temperature;humidity
58554;DHT22;48119;53.218;6.576;2023-02-01T00:02:50;9.30;98.50
58554;DHT22;48119;53.218;6.576;2023-02-01T00:05:27;9.40;98.40
58554;DHT22;48119;53.218;6.576;2023-02-01T00:08:29;9.40;98.40
58554;DHT22;48119;53.218;6.576;2023-02-01T00:11:19;9.40;98.40
58554;DHT22;48119;53.218;6.576;2023-02-01T00:13:53;9.30;98.40
58554;DHT22;48119;53.218;6.576;2023-02-01T00:16:46;9.30;98.30
58554;DHT22;48119;53.218;6.576;2023-02-01T00:19:20;9.40;98.30
58554;DHT22;48119;53.218;6.576;2023-02-01T00:21:49;9.40;98.30
58554;DHT22;48119;53.218;6.576;2023-02-01T00:24:43;9.40;98.30
58554;DHT22;48119;53.218;6.576;2023-02-01T00:27:13;9.30;98.20
58554;DHT22;48119;53.218;6.576;2023-02-01T00:29:46;9.40;98.30
58554;DHT22;48119;53.218;6.576;2023-02-01T00:32:17;9.40;98.20
58554;DHT22;48119;53.218;6.576;2023-02-01T00:35:01;9.40;98.20
58554;DHT22;48119;53.218;6.576;2023-02-01T00:37:32;9.40;98.10
58554;DHT22;48119;53.218;6.576;2023-02-01T00:40:18;9.40;98.10
58554;DHT22;48119;53.218;6.576;2023-02-01T00:42:59;9.40;98.00
58554;DHT22;48119;53.218;6.576;2023-02-01T00:45:27;9.40;98.00
58554;DHT22;48119;53.218;6.576;2023-02-01T00:47:59;9.40;98.00
58554;DHT22;48119;53.218;6.576;2023-02-01T00:53:09;9.40;97.90
58554;DHT22;48119;53.218;6.576;2023-02-01T00:55:51;9.40;97.90
58554;DHT22;48119;53.218;6.576;2023-02-01T00:58:19;9.40;97.70
58554;DHT22;48119;53.218;6.576;2023-02-01T01:01:07;9.40;97.80
58554;DHT22;48119;53.218;6.576;2023-02-01T01:03:43;9.40;98.00
58554;DHT22;48119;53.218;6.576;2023-02-01T01:06:37;9.40;98.00
58554;DHT22;48119;53.218;6.576;2023-02-01T01:09:10;9.40;97.90
58554;DHT22;48119;53.218;6.576;2023-02-01T01:11:39;9.40;98.00
58554;DHT22;48119;53.218;6.576;2023-02-01T01:14:11;9.40;98.00
58554;DHT22;48119;53.218;6.576;2023-02-01T01:16:47;9.40;98.00
58554;DHT22;48119;53.218;6.576;2023-02-01T01:19:26;9.50;98.10
58554;DHT22;48119;53.218;6.576;2023-02-01T01:22:16;9.40;98.10
58554;DHT22;48119;53.218;6.576;2023-02-01T01:24:43;9.50;98.10
58554;DHT22;48119;53.218;6.576;2023-02-01T01:27:12;9.40;98.10
58554;DHT22;48119;53.218;6.576;2023-02-01T01:29:51;9.40;98.10
58554;DHT22;48119;53.218;6.576;2023-02-01T01:32:24;9.40;98.20
58554;DHT22;48119;53.218;6.576;2023-02-01T01:34:53;9.40;98.20
58554;DHT22;48119;53.218;6.576;2023-02-01T01:37:22;9.40;98.30
58554;DHT22;48119;53.218;6.576;2023-02-01T01:39:50;9.40;98.30
58554;DHT22;48119;53.218;6.576;2023-02-01T01:42:42;9.40;98.30
58554;DHT22;48119;53.218;6.576;2023-02-01T01:45:35;9.50;98.50
58554;DHT22;48119;53.218;6.576;2023-02-01T01:51:08;9.50;98.80
58554;DHT22;48119;53.218;6.576;2023-02-01T01:54:52;9.40;99.00
58554;DHT22;48119;53.218;6.576;2023-02-01T01:56:57;9.40;99.30
58554;DHT22;48119;53.218;6.576;2023-02-01T01:59:32;9.40;99.50
58554;DHT22;48119;53.218;6.576;2023-02-01T02:02:08;9.40;99.50
58554;DHT22;48119;53.218;6.576;2023-02-01T02:04:40;9.30;99.60
58554;DHT22;48119;53.218;6.576;2023-02-01T02:07:35;9.30;99.80
58554;DHT22;48119;53.218;6.576;2023-02-01T02:10:27;9.30;99.90
58554;DHT22;48119;53.218;6.576;2023-02-01T02:13:32;9.30;99.90
58554;DHT22;48119;53.218;6.576;2023-02-01T02:25:00;9.30;99.90
58554;DHT22;48119;53.218;6.576;2023-02-01T02:36:00;9.20;99.90
58554;DHT22;48119;53.218;6.576;2023-02-01T02:38:32;9.20;99.90
58554;DHT22;48119;53.218;6.576;2023-02-01T02:41:15;9.20;99.90
58554;DHT22;48119;53.218;6.576;2023-02-01T02:44:13;9.20;99.90
58554;DHT22;48119;53.218;6.576;2023-02-01T02:47:02;9.20;99.90
58554;DHT22;48119;53.218;6.576;2023-02-01T02:49:54;9.20;99.90
58554;DHT22;48119;53.218;6.576;2023-02-01T02:52:45;9.20;99.90
58554;DHT22;48119;53.218;6.576;2023-02-01T02:55:30;9.20;99.90
58554;DHT22;48119;53.218;6.576;2023-02-01T02:58:02;9.20;99.90
58554;DHT22;48119;53.218;6.576;2023-02-01T03:00:50;9.30;99.90
58554;DHT22;48119;53.218;6.576;2023-02-01T03:03:38;9.20;99.90
58554;DHT22;48119;53.218;6.576;2023-02-01T03:06:24;9.20;99.90
58554;DHT22;48119;53.218;6.576;2023-02-01T03:08:50;9.20;99.90
58554;DHT22;48119;53.218;6.576;2023-02-01T03:11:19;9.20;99.90
58554;DHT22;48119;53.218;6.576;2023-02-01T03:13:52;9.30;99.90
58554;DHT22;48119;53.218;6.576;2023-02-01T03:19:18;9.30;99.90
58554;DHT22;48119;53.218;6.576;2023-02-01T03:21:55;9.30;99.90
58554;DHT22;48119;53.218;6.576;2023-02-01T03:27:28;9.30;99.90
58554;DHT22;48119;53.218;6.576;2023-02-01T03:32:51;9.30;99.90
58554;DHT22;48119;53.218;6.576;2023-02-01T03:47:03;9.30;99.90
58554;DHT22;48119;53.218;6.576;2023-02-01T03:49:41;9.30;99.90
58554;DHT22;48119;53.218;6.576;2023-02-01T03:52:31;9.30;99.90
58554;DHT22;48119;53.218;6.576;2023-02-01T03:55:10;9.30;99.90
58554;DHT22;48119;53.218;6.576;2023-02-01T03:57:48;9.30;99.90
58554;DHT22;48119;53.218;6.576;2023-02-01T04:03:38;9.30;99.90
58554;DHT22;48119;53.218;6.576;2023-02-01T04:06:14;9.30;99.90
58554;DHT22;48119;53.218;6.576;2023-02-01T04:09:08;9.30;99.90
58554;DHT22;48119;53.218;6.576;2023-02-01T04:11:47;9.30;99.90
58554;DHT22;48119;53.218;6.576;2023-02-01T04:14:33;9.30;99.90
58554;DHT22;48119;53.218;6.576;2023-02-01T04:17:06;9.30;99.90
58554;DHT22;48119;53.218;6.576;2023-02-01T04:19:37;9.20;99.90
58554;DHT22;48119;53.218;6.576;2023-02-01T04:22:05;9.30;99.90
58554;DHT22;48119;53.218;6.576;2023-02-01T04:24:31;9.30;99.90
58554;DHT22;48119;53.218;6.576;2023-02-01T04:26:57;9.20;99.90
58554;DHT22;48119;53.218;6.576;2023-02-01T04:29:28;9.30;99.90
58554;DHT22;48119;53.218;6.576;2023-02-01T04:31:57;9.30;99.90
58554;DHT22;48119;53.218;6.576;2023-02-01T04:34:25;9.30;99.90
58554;DHT22;48119;53.218;6.576;2023-02-01T04:36:54;9.30;99.90
58554;DHT22;48119;53.218;6.576;2023-02-01T04:39:22;9.30;99.90
58554;DHT22;48119;53.218;6.576;2023-02-01T04:41:57;9.30;99.90
58554;DHT22;48119;53.218;6.576;2023-02-01T04:44:28;9.30;99.90
58554;DHT22;48119;53.218;6.576;2023-02-01T04:46:54;9.30;99.90
58554;DHT22;48119;53.218;6.576;2023-02-01T04:49:40;9.30;99.90
58554;DHT22;48119;53.218;6.576;2023-02-01T04:52:16;9.30;99.90
58554;DHT22;48119;53.218;6.576;2023-02-01T04:54:44;9.30;99.90
58554;DHT22;48119;53.218;6.576;2023-02-01T04:57:22;9.30;99.90
58554;DHT22;48119;53.218;6.576;2023-02-01T04:59:56;9.30;99.90
58554;DHT22;48119;53.218;6.576;2023-02-01T05:02:21;9.20;99.90
58554;DHT22;48119;53.218;6.576;2023-02-01T05:04:50;9.30;99.90
58554;DHT22;48119;53.218;6.576;2023-02-01T05:07:22;9.30;99.90
58554;DHT22;48119;53.218;6.576;2023-02-01T05:10:11;9.30;99.90
58554;DHT22;48119;53.218;6.576;2023-02-01T05:12:39;9.20;99.90
58554;DHT22;48119;53.218;6.576;2023-02-01T05:15:28;9.20;99.90
58554;DHT22;48119;53.218;6.576;2023-02-01T05:18:15;9.20;99.90
58554;DHT22;48119;53.218;6.576;2023-02-01T05:21:05;9.10;99.90
58554;DHT22;48119;53.218;6.576;2023-02-01T05:23:34;9.20;99.90
58554;DHT22;48119;53.218;6.576;2023-02-01T05:26:25;9.20;99.90
58554;DHT22;48119;53.218;6.576;2023-02-01T05:28:55;9.20;99.90
58554;DHT22;48119;53.218;6.576;2023-02-01T05:31:29;9.20;99.90
58554;DHT22;48119;53.218;6.576;2023-02-01T05:34:02;9.20;99.90
58554;DHT22;48119;53.218;6.576;2023-02-01T05:36:34;9.20;99.90
58554;DHT22;48119;53.218;6.576;2023-02-01T05:39:11;9.20;99.90
58554;DHT22;48119;53.218;6.576;2023-02-01T05:41:39;9.30;99.90
58554;DHT22;48119;53.218;6.576;2023-02-01T05:44:25;9.30;99.90
58554;DHT22;48119;53.218;6.576;2023-02-01T05:46:59;9.20;99.90
58554;DHT22;48119;53.218;6.576;2023-02-01T05:49:35;9.20;99.90
58554;DHT22;48119;53.218;6.576;2023-02-01T05:52:06;9.20;99.90
58554;DHT22;48119;53.218;6.576;2023-02-01T05:54:54;9.20;99.90
58554;DHT22;48119;53.218;6.576;2023-02-01T05:57:36;9.20;99.90
58554;DHT22;48119;53.218;6.576;2023-02-01T06:00:28;9.20;99.90
58554;DHT22;48119;53.218;6.576;2023-02-01T06:03:14;9.20;99.90
58554;DHT22;48119;53.218;6.576;2023-02-01T06:05:50;9.20;99.90
58554;DHT22;48119;53.218;6.576;2023-02-01T06:08:19;9.20;99.90
58554;DHT22;48119;53.218;6.576;2023-02-01T06:11:02;9.20;99.90
58554;DHT22;48119;53.218;6.576;2023-02-01T06:13:32;9.20;99.90
58554;DHT22;48119;53.218;6.576;2023-02-01T06:16:15;9.20;99.90
58554;DHT22;48119;53.218;6.576;2023-02-01T06:18:49;9.30;99.90
58554;DHT22;48119;53.218;6.576;2023-02-01T06:21:15;9.30;99.90
58554;DHT22;48119;53.218;6.576;2023-02-01T06:23:52;9.20;99.90
58554;DHT22;48119;53.218;6.576;2023-02-01T06:26:18;9.30;99.90
58554;DHT22;48119;53.218;6.576;2023-02-01T06:28:44;9.30;99.90
58554;DHT22;48119;53.218;6.576;2023-02-01T06:31:13;9.10;99.90
58554;DHT22;48119;53.218;6.576;2023-02-01T06:33:51;9.20;99.90
58554;DHT22;48119;53.218;6.576;2023-02-01T06:36:23;9.30;99.90
58554;DHT22;48119;53.218;6.576;2023-02-01T06:38:49;9.30;99.90
58554;DHT22;48119;53.218;6.576;2023-02-01T06:41:17;9.30;99.90
58554;DHT22;48119;53.218;6.576;2023-02-01T06:43:57;9.30;99.90
58554;DHT22;48119;53.218;6.576;2023-02-01T06:46:25;9.30;99.90
58554;DHT22;48119;53.218;6.576;2023-02-01T06:48:54;9.30;99.90
58554;DHT22;48119;53.218;6.576;2023-02-01T06:51:26;9.30;99.90
58554;DHT22;48119;53.218;6.576;2023-02-01T06:53:53;9.30;99.90
58554;DHT22;48119;53.218;6.576;2023-02-01T06:56:25;9.30;99.90
58554;DHT22;48119;53.218;6.576;2023-02-01T06:59:09;9.30;99.90
58554;DHT22;48119;53.218;6.576;2023-02-01T07:01:38;9.40;99.90
58554;DHT22;48119;53.218;6.576;2023-02-01T07:04:09;9.30;99.90
58554;DHT22;48119;53.218;6.576;2023-02-01T07:06:36;9.30;99.90
58554;DHT22;48119;53.218;6.576;2023-02-01T07:11:52;9.30;99.90
58554;DHT22;48119;53.218;6.576;2023-02-01T07:14:21;9.20;99.90
58554;DHT22;48119;53.218;6.576;2023-02-01T07:16:58;9.20;99.90
58554;DHT22;48119;53.218;6.576;2023-02-01T07:19:26;9.20;99.90
58554;DHT22;48119;53.218;6.576;2023-02-01T07:22:00;9.20;99.90
58554;DHT22;48119;53.218;6.576;2023-02-01T07:24:54;9.20;99.90
58554;DHT22;48119;53.218;6.576;2023-02-01T07:27:20;9.30;99.90
58554;DHT22;48119;53.218;6.576;2023-02-01T07:30:17;9.30;99.90
58554;DHT22;48119;53.218;6.576;2023-02-01T07:32:43;9.30;99.90
58554;DHT22;48119;53.218;6.576;2023-02-01T07:35:11;9.30;99.90
58554;DHT22;48119;53.218;6.576;2023-02-01T07:38:03;9.30;99.90
58554;DHT22;48119;53.218;6.576;2023-02-01T07:43:38;9.30;99.90
58554;DHT22;48119;53.218;6.576;2023-02-01T07:46:12;9.30;99.90
58554;DHT22;48119;53.218;6.576;2023-02-01T07:48:52;9.20;99.90
58554;DHT22;48119;53.218;6.576;2023-02-01T07:51:36;9.30;99.90
58554;DHT22;48119;53.218;6.576;2023-02-01T07:54:04;9.30;99.90
58554;DHT22;48119;53.218;6.576;2023-02-01T07:56:35;9.20;99.90
58554;DHT22;48119;53.218;6.576;2023-02-01T07:59:04;9.30;99.90
58554;DHT22;48119;53.218;6.576;2023-02-01T08:01:43;9.20;99.90
58554;DHT22;48119;53.218;6.576;2023-02-01T08:04:12;9.30;99.90
58554;DHT22;48119;53.218;6.576;2023-02-01T08:06:51;9.30;99.90
58554;DHT22;48119;53.218;6.576;2023-02-01T08:09:28;9.30;99.90
58554;DHT22;48119;53.218;6.576;2023-02-01T08:12:04;9.30;99.90
58554;DHT22;48119;53.218;6.576;2023-02-01T08:14:40;9.30;99.90
58554;DHT22;48119;53.218;6.576;2023-02-01T08:17:29;9.30;99.90
58554;DHT22;48119;53.218;6.576;2023-02-01T08:20:05;9.40;99.90
58554;DHT22;48119;53.218;6.576;2023-02-01T08:22:39;9.30;99.90
58554;DHT22;48119;53.218;6.576;2023-02-01T08:25:24;9.30;99.90
58554;DHT22;48119;53.218;6.576;2023-02-01T08:27:55;9.30;99.90
58554;DHT22;48119;53.218;6.576;2023-02-01T08:30:32;9.30;99.90
58554;DHT22;48119;53.218;6.576;2023-02-01T08:33:04;9.30;99.90
58554;DHT22;48119;53.218;6.576;2023-02-01T08:35:48;9.30;99.90
58554;DHT22;48119;53.218;6.576;2023-02-01T08:38:31;9.30;99.90
58554;DHT22;48119;53.218;6.576;2023-02-01T08:41:11;9.30;99.90
58554;DHT22;48119;53.218;6.576;2023-02-01T08:43:37;9.30;99.90
58554;DHT22;48119;53.218;6.576;2023-02-01T08:46:09;9.30;99.90
58554;DHT22;48119;53.218;6.576;2023-02-01T08:48:46;9.30;99.90
58554;DHT22;48119;53.218;6.576;2023-02-01T08:51:19;9.40;99.90
58554;DHT22;48119;53.218;6.576;2023-02-01T08:53:53;9.40;99.90
58554;DHT22;48119;53.218;6.576;2023-02-01T08:59:13;9.40;99.90
58554;DHT22;48119;53.218;6.576;2023-02-01T09:01:45;9.50;99.90
58554;DHT22;48119;53.218;6.576;2023-02-01T09:04:28;9.50;99.90
58554;DHT22;48119;53.218;6.576;2023-02-01T09:06:57;9.40;99.90
58554;DHT22;48119;53.218;6.576;2023-02-01T09:09:34;9.40;99.90
58554;DHT22;48119;53.218;6.576;2023-02-01T09:12:00;9.40;99.90
58554;DHT22;48119;53.218;6.576;2023-02-01T09:14:29;9.40;99.90
58554;DHT22;48119;53.218;6.576;2023-02-01T09:16:56;9.50;99.90
58554;DHT22;48119;53.218;6.576;2023-02-01T09:19:31;9.40;99.90
58554;DHT22;48119;53.218;6.576;2023-02-01T09:22:20;9.40;99.90
58554;DHT22;48119;53.218;6.576;2023-02-01T09:24:46;9.40;99.90
58554;DHT22;48119;53.218;6.576;2023-02-01T09:27:19;9.40;99.90
58554;DHT22;48119;53.218;6.576;2023-02-01T09:29:57;9.50;99.90
58554;DHT22;48119;53.218;6.576;2023-02-01T09:32:26;9.40;99.90
58554;DHT22;48119;53.218;6.576;2023-02-01T09:35:09;9.40;99.90
58554;DHT22;48119;53.218;6.576;2023-02-01T09:37:40;9.40;99.90
58554;DHT22;48119;53.218;6.576;2023-02-01T09:40:14;9.40;99.90
58554;DHT22;48119;53.218;6.576;2023-02-01T09:45:22;9.40;99.90
58554;DHT22;48119;53.218;6.576;2023-02-01T09:48:09;9.40;99.90
58554;DHT22;48119;53.218;6.576;2023-02-01T09:50:50;9.50;99.90
58554;DHT22;48119;53.218;6.576;2023-02-01T09:53:33;9.40;99.90
58554;DHT22;48119;53.218;6.576;2023-02-01T09:56:26;9.40;99.90
58554;DHT22;48119;53.218;6.576;2023-02-01T10:01:56;9.40;99.90
58554;DHT22;48119;53.218;6.576;2023-02-01T10:04:43;9.40;99.90
58554;DHT22;48119;53.218;6.576;2023-02-01T10:10:50;9.40;99.90
58554;DHT22;48119;53.218;6.576;2023-02-01T10:13:35;9.40;99.90
58554;DHT22;48119;53.218;6.576;2023-02-01T10:19:21;9.40;99.90
58554;DHT22;48119;53.218;6.576;2023-02-01T10:24:44;9.30;99.90
58554;DHT22;48119;53.218;6.576;2023-02-01T10:27:22;9.30;99.90
58554;DHT22;48119;53.218;6.576;2023-02-01T10:33:38;9.30;99.90
58554;DHT22;48119;53.218;6.576;2023-02-01T10:38:54;9.40;99.90
58554;DHT22;48119;53.218;6.576;2023-02-01T10:41:38;9.30;99.90
58554;DHT22;48119;53.218;6.576;2023-02-01T10:44:34;9.40;99.90
58554;DHT22;48119;53.218;6.576;2023-02-01T10:47:16;9.40;99.90
58554;DHT22;48119;53.218;6.576;2023-02-01T10:53:42;9.40;99.90
58554;DHT22;48119;53.218;6.576;2023-02-01T10:56:19;9.30;99.90
58554;DHT22;48119;53.218;6.576;2023-02-01T10:58:59;9.40;99.90
58554;DHT22;48119;53.218;6.576;2023-02-01T11:01:37;9.40;99.90
58554;DHT22;48119;53.218;6.576;2023-02-01T11:04:16;9.40;99.90
58554;DHT22;48119;53.218;6.576;2023-02-01T11:06:47;9.40;99.90
58554;DHT22;48119;53.218;6.576;2023-02-01T11:09:32;9.40;99.90
58554;DHT22;48119;53.218;6.576;2023-02-01T11:12:41;9.50;99.90
58554;DHT22;48119;53.218;6.576;2023-02-01T11:15:22;9.40;99.90
58554;DHT22;48119;53.218;6.576;2023-02-01T11:17:54;9.40;99.90
58554;DHT22;48119;53.218;6.576;2023-02-01T11:20:44;9.40;99.90
58554;DHT22;48119;53.218;6.576;2023-02-01T11:23:33;9.40;99.90
58554;DHT22;48119;53.218;6.576;2023-02-01T11:26:20;9.40;99.90
58554;DHT22;48119;53.218;6.576;2023-02-01T11:29:23;9.40;99.90
58554;DHT22;48119;53.218;6.576;2023-02-01T11:32:08;9.40;99.90
58554;DHT22;48119;53.218;6.576;2023-02-01T11:34:51;9.40;99.90
58554;DHT22;48119;53.218;6.576;2023-02-01T11:40:01;9.30;99.90
58554;DHT22;48119;53.218;6.576;2023-02-01T11:42:32;9.30;99.90
58554;DHT22;48119;53.218;6.576;2023-02-01T11:45:53;9.20;99.90
58554;DHT22;48119;53.218;6.576;2023-02-01T11:48:28;9.10;99.90
58554;DHT22;48119;53.218;6.576;2023-02-01T12:19:21;8.60;99.90
58554;DHT22;48119;53.218;6.576;2023-02-01T12:36:41;8.80;99.90
58554;DHT22;48119;53.218;6.576;2023-02-01T12:44:50;9.10;99.90
58554;DHT22;48119;53.218;6.576;2023-02-01T12:47:44;9.30;99.90
58554;DHT22;48119;53.218;6.576;2023-02-01T12:50:29;9.30;99.90
58554;DHT22;48119;53.218;6.576;2023-02-01T12:53:32;9.40;99.90
58554;DHT22;48119;53.218;6.576;2023-02-01T12:56:25;9.50;99.90
58554;DHT22;48119;53.218;6.576;2023-02-01T12:59:34;9.50;99.90
58554;DHT22;48119;53.218;6.576;2023-02-01T13:02:16;9.50;99.90
58554;DHT22;48119;53.218;6.576;2023-02-01T13:05:04;9.60;99.90
58554;DHT22;48119;53.218;6.576;2023-02-01T13:08:06;9.60;99.90
58554;DHT22;48119;53.218;6.576;2023-02-01T13:10:38;9.60;99.90
58554;DHT22;48119;53.218;6.576;2023-02-01T13:16:16;9.70;99.90
58554;DHT22;48119;53.218;6.576;2023-02-01T13:18:49;9.70;99.90
58554;DHT22;48119;53.218;6.576;2023-02-01T13:21:26;9.70;99.90
58554;DHT22;48119;53.218;6.576;2023-02-01T13:24:20;9.70;99.90
58554;DHT22;48119;53.218;6.576;2023-02-01T13:26:57;9.70;99.90
58554;DHT22;48119;53.218;6.576;2023-02-01T13:29:34;9.80;99.90
58554;DHT22;48119;53.218;6.576;2023-02-01T13:32:13;9.80;99.90
58554;DHT22;48119;53.218;6.576;2023-02-01T13:41:12;9.80;99.90
58554;DHT22;48119;53.218;6.576;2023-02-01T13:43:58;9.90;99.90
58554;DHT22;48119;53.218;6.576;2023-02-01T13:46:46;9.80;99.90
58554;DHT22;48119;53.218;6.576;2023-02-01T13:49:36;9.80;99.90
58554;DHT22;48119;53.218;6.576;2023-02-01T13:52:39;9.80;99.90
58554;DHT22;48119;53.218;6.576;2023-02-01T13:55:24;9.80;99.90
58554;DHT22;48119;53.218;6.576;2023-02-01T14:00:37;9.80;99.90
58554;DHT22;48119;53.218;6.576;2023-02-01T14:03:11;9.80;99.90
58554;DHT22;48119;53.218;6.576;2023-02-01T14:08:35;9.90;99.90
58554;DHT22;48119;53.218;6.576;2023-02-01T14:11:04;9.90;99.90
58554;DHT22;48119;53.218;6.576;2023-02-01T14:13:39;9.80;99.90
58554;DHT22;48119;53.218;6.576;2023-02-01T14:16:19;9.80;99.90
58554;DHT22;48119;53.218;6.576;2023-02-01T14:18:54;9.80;99.90
58554;DHT22;48119;53.218;6.576;2023-02-01T14:21:47;9.80;99.90
58554;DHT22;48119;53.218;6.576;2023-02-01T14:24:25;9.90;99.90
58554;DHT22;48119;53.218;6.576;2023-02-01T14:26:57;9.90;99.90
58554;DHT22;48119;53.218;6.576;2023-02-01T14:29:30;9.90;99.90
58554;DHT22;48119;53.218;6.576;2023-02-01T14:32:19;9.90;99.90
58554;DHT22;48119;53.218;6.576;2023-02-01T14:34:50;9.90;99.90
58554;DHT22;48119;53.218;6.576;2023-02-01T14:37:34;9.90;99.90
58554;DHT22;48119;53.218;6.576;2023-02-01T14:40:14;9.80;99.90
58554;DHT22;48119;53.218;6.576;2023-02-01T14:42:45;9.80;99.90
58554;DHT22;48119;53.218;6.576;2023-02-01T14:50:45;9.90;99.90
58554;DHT22;48119;53.218;6.576;2023-02-01T14:58:58;9.90;99.90
58554;DHT22;48119;53.218;6.576;2023-02-01T15:01:35;9.90;99.90
58554;DHT22;48119;53.218;6.576;2023-02-01T15:04:40;9.90;99.90
58554;DHT22;48119;53.218;6.576;2023-02-01T15:07:07;9.90;99.90
58554;DHT22;48119;53.218;6.576;2023-02-01T15:09:42;9.90;99.90
58554;DHT22;48119;53.218;6.576;2023-02-01T15:15:12;9.90;99.90
58554;DHT22;48119;53.218;6.576;2023-02-01T15:17:58;9.80;99.90
58554;DHT22;48119;53.218;6.576;2023-02-01T15:20:32;9.80;99.90
58554;DHT22;48119;53.218;6.576;2023-02-01T15:23:15;9.80;99.90
58554;DHT22;48119;53.218;6.576;2023-02-01T15:25:53;9.80;99.90
58554;DHT22;48119;53.218;6.576;2023-02-01T15:28:22;9.90;99.90
58554;DHT22;48119;53.218;6.576;2023-02-01T15:33:24;9.90;99.90
58554;DHT22;48119;53.218;6.576;2023-02-01T15:41:09;9.80;99.90
58554;DHT22;48119;53.218;6.576;2023-02-01T15:44:49;9.90;99.90
58554;DHT22;48119;53.218;6.576;2023-02-01T15:46:58;9.90;99.90
58554;DHT22;48119;53.218;6.576;2023-02-01T15:49:37;9.90;99.90
58554;DHT22;48119;53.218;6.576;2023-02-01T15:54:52;9.90;99.90
58554;DHT22;48119;53.218;6.576;2023-02-01T15:57:34;9.90;99.90
58554;DHT22;48119;53.218;6.576;2023-02-01T16:00:07;9.80;99.90
58554;DHT22;48119;53.218;6.576;2023-02-01T16:02:36;9.80;99.90
58554;DHT22;48119;53.218;6.576;2023-02-01T16:05:05;9.80;99.90
58554;DHT22;48119;53.218;6.576;2023-02-01T16:07:33;9.90;99.90
58554;DHT22;48119;53.218;6.576;2023-02-01T16:10:24;9.80;99.90
58554;DHT22;48119;53.218;6.576;2023-02-01T16:12:53;9.70;99.90
58554;DHT22;48119;53.218;6.576;2023-02-01T16:15:34;9.80;99.90
58554;DHT22;48119;53.218;6.576;2023-02-01T16:18:03;9.80;99.90
58554;DHT22;48119;53.218;6.576;2023-02-01T16:20:41;9.70;99.90
58554;DHT22;48119;53.218;6.576;2023-02-01T16:23:08;9.70;99.90
58554;DHT22;48119;53.218;6.576;2023-02-01T16:25:42;9.80;99.90
58554;DHT22;48119;53.218;6.576;2023-02-01T16:28:23;9.70;99.90
58554;DHT22;48119;53.218;6.576;2023-02-01T16:30:51;9.70;99.90
58554;DHT22;48119;53.218;6.576;2023-02-01T16:33:20;9.70;99.90
58554;DHT22;48119;53.218;6.576;2023-02-01T16:36:12;9.70;99.90
58554;DHT22;48119;53.218;6.576;2023-02-01T16:38:50;9.70;99.90
58554;DHT22;48119;53.218;6.576;2023-02-01T16:41:23;9.70;99.90
58554;DHT22;48119;53.218;6.576;2023-02-01T16:44:16;9.60;99.90
58554;DHT22;48119;53.218;6.576;2023-02-01T16:46:52;9.70;99.90
58554;DHT22;48119;53.218;6.576;2023-02-01T16:49:23;9.60;99.90
58554;DHT22;48119;53.218;6.576;2023-02-01T16:51:58;9.70;99.90
58554;DHT22;48119;53.218;6.576;2023-02-01T16:54:27;9.70;99.90
58554;DHT22;48119;53.218;6.576;2023-02-01T16:56:55;9.70;99.90
58554;DHT22;48119;53.218;6.576;2023-02-01T16:59:23;9.60;99.90
58554;DHT22;48119;53.218;6.576;2023-02-01T17:01:55;9.70;99.90
58554;DHT22;48119;53.218;6.576;2023-02-01T17:04:24;9.60;99.90
58554;DHT22;48119;53.218;6.576;2023-02-01T17:07:04;9.60;99.90
58554;DHT22;48119;53.218;6.576;2023-02-01T17:09:36;9.60;99.80
58554;DHT22;48119;53.218;6.576;2023-02-01T17:12:23;9.60;99.70
58554;DHT22;48119;53.218;6.576;2023-02-01T17:14:56;9.60;99.70
58554;DHT22;48119;53.218;6.576;2023-02-01T17:17:56;9.60;99.70
58554;DHT22;48119;53.218;6.576;2023-02-01T17:20:28;9.60;99.70
58554;DHT22;48119;53.218;6.576;2023-02-01T17:22:54;9.60;99.90
58554;DHT22;48119;53.218;6.576;2023-02-01T17:25:23;9.60;99.90
58554;DHT22;48119;53.218;6.576;2023-02-01T17:27:51;9.60;99.90
58554;DHT22;48119;53.218;6.576;2023-02-01T17:30:30;9.60;99.90
58554;DHT22;48119;53.218;6.576;2023-02-01T17:32:56;9.60;99.90
58554;DHT22;48119;53.218;6.576;2023-02-01T17:35:27;9.60;99.90
58554;DHT22;48119;53.218;6.576;2023-02-01T17:38:01;9.60;99.90
58554;DHT22;48119;53.218;6.576;2023-02-01T17:40:48;9.60;99.90
58554;DHT22;48119;53.218;6.576;2023-02-01T17:43:23;9.60;99.30
58554;DHT22;48119;53.218;6.576;2023-02-01T17:45:51;9.60;99.40
58554;DHT22;48119;53.218;6.576;2023-02-01T17:48:27;9.60;99.20
58554;DHT22;48119;53.218;6.576;2023-02-01T17:51:03;9.50;99.10
58554;DHT22;48119;53.218;6.576;2023-02-01T17:53:30;9.50;98.80
58554;DHT22;48119;53.218;6.576;2023-02-01T17:56:07;9.50;98.80
58554;DHT22;48119;53.218;6.576;2023-02-01T17:58:37;9.50;98.70
58554;DHT22;48119;53.218;6.576;2023-02-01T18:01:17;9.60;98.60
58554;DHT22;48119;53.218;6.576;2023-02-01T18:03:50;9.50;98.30
58554;DHT22;48119;53.218;6.576;2023-02-01T18:06:24;9.50;98.40
58554;DHT22;48119;53.218;6.576;2023-02-01T18:09:16;9.50;98.30
58554;DHT22;48119;53.218;6.576;2023-02-01T18:11:44;9.50;98.10
58554;DHT22;48119;53.218;6.576;2023-02-01T18:14:16;9.50;98.10
58554;DHT22;48119;53.218;6.576;2023-02-01T18:16:54;9.50;98.00
58554;DHT22;48119;53.218;6.576;2023-02-01T18:19:23;9.50;97.90
58554;DHT22;48119;53.218;6.576;2023-02-01T18:21:49;9.50;97.80
58554;DHT22;48119;53.218;6.576;2023-02-01T18:24:24;9.50;97.80
58554;DHT22;48119;53.218;6.576;2023-02-01T18:26:53;9.50;97.70
58554;DHT22;48119;53.218;6.576;2023-02-01T18:29:34;9.50;97.70
58554;DHT22;48119;53.218;6.576;2023-02-01T18:32:01;9.50;97.70
58554;DHT22;48119;53.218;6.576;2023-02-01T18:34:29;9.50;97.80
58554;DHT22;48119;53.218;6.576;2023-02-01T18:36:58;9.60;97.90
58554;DHT22;48119;53.218;6.576;2023-02-01T18:39:27;9.60;97.90
58554;DHT22;48119;53.218;6.576;2023-02-01T18:42:04;9.60;98.00
58554;DHT22;48119;53.218;6.576;2023-02-01T18:45:08;9.60;98.20
58554;DHT22;48119;53.218;6.576;2023-02-01T18:47:42;9.60;98.40
58554;DHT22;48119;53.218;6.576;2023-02-01T18:50:10;9.60;98.60
58554;DHT22;48119;53.218;6.576;2023-02-01T18:52:43;9.60;98.70
58554;DHT22;48119;53.218;6.576;2023-02-01T18:55:10;9.60;98.80
58554;DHT22;48119;53.218;6.576;2023-02-01T18:57:59;9.60;98.80
58554;DHT22;48119;53.218;6.576;2023-02-01T19:00:31;9.60;98.90
58554;DHT22;48119;53.218;6.576;2023-02-01T19:02:59;9.60;99.00
58554;DHT22;48119;53.218;6.576;2023-02-01T19:05:35;9.50;99.00
58554;DHT22;48119;53.218;6.576;2023-02-01T19:08:17;9.50;99.00
58554;DHT22;48119;53.218;6.576;2023-02-01T19:10:45;9.50;99.10
58554;DHT22;48119;53.218;6.576;2023-02-01T19:13:36;9.50;99.10
58554;DHT22;48119;53.218;6.576;2023-02-01T19:16:11;9.60;99.00
58554;DHT22;48119;53.218;6.576;2023-02-01T19:18:47;9.60;99.00
58554;DHT22;48119;53.218;6.576;2023-02-01T19:21:43;9.50;99.00
58554;DHT22;48119;53.218;6.576;2023-02-01T19:24:27;9.50;99.10
58554;DHT22;48119;53.218;6.576;2023-02-01T19:27:13;9.50;98.90
58554;DHT22;48119;53.218;6.576;2023-02-01T19:30:09;9.50;99.00
58554;DHT22;48119;53.218;6.576;2023-02-01T19:33:10;9.50;99.10
58554;DHT22;48119;53.218;6.576;2023-02-01T19:39:20;9.50;98.90
58554;DHT22;48119;53.218;6.576;2023-02-01T19:42:31;9.50;99.00
58554;DHT22;48119;53.218;6.576;2023-02-01T19:45:03;9.50;98.90
58554;DHT22;48119;53.218;6.576;2023-02-01T19:47:35;9.50;99.00